createdAt,value
2018-09-09T00:01:18.652Z,18.44
2018-09-09T00:03:47.327Z,18.45
2018-09-09T00:06:15.988Z,18.48
2018-09-09T00:08:44.644Z,18.45
2018-09-09T00:11:13.286Z,18.45
2018-09-09T00:13:41.943Z,18.37
2018-09-09T00:16:10.588Z,18.44
2018-09-09T00:18:39.243Z,18.37
2018-09-09T00:21:07.947Z,18.35
2018-09-09T00:23:36.633Z,18.33
2018-09-09T00:26:05.319Z,18.25
2018-09-09T00:28:33.933Z,18.26
2018-09-09T00:31:02.571Z,18.22
2018-09-09T00:33:31.291Z,18.27
2018-09-09T00:36:00.013Z,18.18
2018-09-09T00:38:28.684Z,18.22
2018-09-09T00:40:57.327Z,18.19
2018-09-09T00:43:26.025Z,18.25
2018-09-09T00:45:54.701Z,18.21
2018-09-09T00:48:23.353Z,18.18
2018-09-09T00:50:57.270Z,18.13
2018-09-09T00:53:31.153Z,18.12
2018-09-09T00:55:59.839Z,18.11
2018-09-09T00:58:28.475Z,18.04
2018-09-09T01:01:02.424Z,18.06
2018-09-09T01:03:31.196Z,17.99
2018-09-09T01:05:59.869Z,18.01
2018-09-09T01:08:28.528Z,18.07
2018-09-09T01:10:57.166Z,18.08
2018-09-09T01:13:25.772Z,18.08
2018-09-09T01:15:54.498Z,18.08
2018-09-09T01:18:23.155Z,18.06
2018-09-09T01:20:51.862Z,18.04
2018-09-09T01:23:20.625Z,18.01
2018-09-09T01:25:49.301Z,18.01
2018-09-09T01:28:17.934Z,17.95
2018-09-09T01:30:46.591Z,17.92
2018-09-09T01:33:15.224Z,17.86
2018-09-09T01:35:43.964Z,17.88
2018-09-09T01:38:12.608Z,17.84
2018-09-09T01:40:41.299Z,17.83
2018-09-09T01:43:09.955Z,17.80
2018-09-09T01:45:38.734Z,17.78
2018-09-09T01:48:07.414Z,17.79
2018-09-09T01:50:36.050Z,17.76
2018-09-09T01:53:04.822Z,17.74
2018-09-09T01:55:33.820Z,17.76
2018-09-09T01:58:02.482Z,17.76
2018-09-09T02:00:31.152Z,17.77
2018-09-09T02:02:59.795Z,17.79
2018-09-09T02:05:28.494Z,17.75
2018-09-09T02:07:57.161Z,17.68
2018-09-09T02:10:25.839Z,17.73
2018-09-09T02:12:54.459Z,17.70
2018-09-09T02:15:23.124Z,17.69
2018-09-09T02:17:51.787Z,17.72
2018-09-09T02:20:20.464Z,17.65
2018-09-09T02:22:49.131Z,17.64
2018-09-09T02:25:17.827Z,17.56
2018-09-09T02:27:46.424Z,17.52
2018-09-09T02:30:15.071Z,17.47
2018-09-09T02:32:43.706Z,17.48
2018-09-09T02:35:12.343Z,17.42
2018-09-09T02:37:41.039Z,17.41
2018-09-09T02:40:09.755Z,17.39
2018-09-09T02:42:38.443Z,17.35
2018-09-09T02:45:07.110Z,17.28
2018-09-09T02:47:35.811Z,17.30
2018-09-09T02:50:04.566Z,17.29
2018-09-09T02:52:33.798Z,17.24
2018-09-09T02:55:02.494Z,17.28
2018-09-09T02:57:31.126Z,17.24
2018-09-09T02:59:59.748Z,17.22
2018-09-09T03:02:28.421Z,17.19
2018-09-09T03:04:57.059Z,17.23
2018-09-09T03:07:25.691Z,17.18
2018-09-09T03:09:54.316Z,17.11
2018-09-09T03:12:22.938Z,17.06
2018-09-09T03:14:51.608Z,17.02
2018-09-09T03:17:20.239Z,17.01
2018-09-09T03:19:48.880Z,16.92
2018-09-09T03:22:17.524Z,16.91
2018-09-09T03:24:46.187Z,16.85
2018-09-09T03:27:14.856Z,16.84
2018-09-09T03:29:43.567Z,16.77
2018-09-09T03:32:12.202Z,16.76
2018-09-09T03:34:40.876Z,16.76
2018-09-09T03:37:09.520Z,16.77
2018-09-09T03:39:38.269Z,16.79
2018-09-09T03:42:07.284Z,16.81
2018-09-09T03:44:35.911Z,16.82
2018-09-09T03:47:04.603Z,16.78
2018-09-09T03:49:33.217Z,16.80
2018-09-09T03:52:01.894Z,16.77
2018-09-09T03:54:30.535Z,16.79
2018-09-09T03:56:59.198Z,16.74
2018-09-09T03:59:27.943Z,16.72
2018-09-09T04:01:56.546Z,16.72
2018-09-09T04:04:25.228Z,16.73
2018-09-09T04:06:53.907Z,16.75
2018-09-09T04:09:22.592Z,16.75
2018-09-09T04:11:51.246Z,16.74
2018-09-09T04:14:19.859Z,16.73
2018-09-09T04:16:48.498Z,16.81
2018-09-09T04:19:17.230Z,16.88
2018-09-09T04:21:50.059Z,16.91
2018-09-09T04:24:19.059Z,16.92
2018-09-09T04:26:47.848Z,16.95
2018-09-09T04:29:16.573Z,16.86
2018-09-09T04:31:45.428Z,16.88
2018-09-09T04:34:14.336Z,16.86
2018-09-09T04:36:43.635Z,16.82
2018-09-09T04:39:14.498Z,16.88
2018-09-09T04:41:43.199Z,16.86
2018-09-09T04:44:13.284Z,16.84
2018-09-09T04:46:41.985Z,16.86
2018-09-09T04:49:10.976Z,16.87
2018-09-09T04:51:39.888Z,16.95
2018-09-09T04:54:08.566Z,16.92
2018-09-09T04:56:37.190Z,16.94
2018-09-09T04:59:06.186Z,16.97
2018-09-09T05:01:38.280Z,16.97
2018-09-09T05:04:06.926Z,16.96
2018-09-09T05:06:36.512Z,16.92
2018-09-09T05:09:06.453Z,16.89
2018-09-09T05:11:35.279Z,16.87
2018-09-09T05:14:04.031Z,16.95
2018-09-09T05:16:32.772Z,16.97
2018-09-09T05:19:01.480Z,17.01
2018-09-09T05:21:30.223Z,17.01
2018-09-09T05:23:58.854Z,17.02
2018-09-09T05:26:27.504Z,17.05
2018-09-09T05:28:56.139Z,17.09
2018-09-09T05:31:24.776Z,17.15
2018-09-09T05:33:53.466Z,17.21
2018-09-09T05:36:22.125Z,17.27
2018-09-09T05:38:50.809Z,17.35
2018-09-09T05:41:19.468Z,17.40
2018-09-09T05:43:48.099Z,17.43
2018-09-09T05:46:16.762Z,17.46
2018-09-09T05:48:45.447Z,17.47
2018-09-09T05:51:14.192Z,17.54
2018-09-09T05:53:42.937Z,17.65
2018-09-09T05:56:11.571Z,17.64
2018-09-09T05:58:40.246Z,17.72
2018-09-09T06:01:08.940Z,17.79
2018-09-09T06:04:16.560Z,17.76
2018-09-09T06:06:45.180Z,17.61
2018-09-09T06:09:13.890Z,17.69
2018-09-09T06:11:42.559Z,17.84
2018-09-09T06:14:11.200Z,17.90
2018-09-09T06:16:39.881Z,17.91
2018-09-09T06:19:08.521Z,18.01
2018-09-09T06:21:37.220Z,18.14
2018-09-09T06:24:06.065Z,18.23
2018-09-09T06:26:34.694Z,18.38
2018-09-09T06:29:03.341Z,18.29
2018-09-09T06:31:32.014Z,18.36
2018-09-09T06:34:00.735Z,18.34
2018-09-09T06:36:29.387Z,18.45
2018-09-09T06:38:58.622Z,18.57
2018-09-09T06:41:27.242Z,18.59
2018-09-09T06:43:55.922Z,18.68
2018-09-09T06:46:24.655Z,18.74
2018-09-09T06:48:53.301Z,18.88
2018-09-09T06:51:22.096Z,18.91
2018-09-09T06:53:50.798Z,18.90
2018-09-09T06:56:19.471Z,18.93
2018-09-09T06:58:48.211Z,18.94
2018-09-09T07:01:16.942Z,18.86
2018-09-09T07:03:45.543Z,18.89
2018-09-09T07:06:14.192Z,18.95
2018-09-09T07:08:42.916Z,18.99
2018-09-09T07:11:11.758Z,19.08
2018-09-09T07:13:40.373Z,19.21
2018-09-09T07:16:09.006Z,19.51
2018-09-09T07:18:37.679Z,19.64
2018-09-09T07:21:06.384Z,19.59
2018-09-09T07:23:35.075Z,19.68
2018-09-09T07:26:03.807Z,19.67
2018-09-09T07:28:32.441Z,19.73
2018-09-09T07:31:01.173Z,19.79
2018-09-09T07:33:29.823Z,19.88
2018-09-09T07:35:58.507Z,19.84
2018-09-09T07:38:27.132Z,19.85
2018-09-09T07:40:55.786Z,19.88
2018-09-09T07:43:24.515Z,20.07
2018-09-09T07:45:53.164Z,20.31
2018-09-09T07:48:21.831Z,20.46
2018-09-09T07:50:50.553Z,20.64
2018-09-09T07:53:19.255Z,20.85
2018-09-09T07:55:47.939Z,20.90
2018-09-09T07:58:16.635Z,20.99
2018-09-09T08:00:45.350Z,21.00
2018-09-09T08:03:14.107Z,21.16
2018-09-09T08:05:42.843Z,21.37
2018-09-09T08:08:11.572Z,21.43
2018-09-09T08:10:40.256Z,21.59
2018-09-09T08:13:08.946Z,21.75
2018-09-09T08:15:37.575Z,21.69
2018-09-09T08:18:06.305Z,21.88
2018-09-09T08:20:34.934Z,22.09
2018-09-09T08:23:03.674Z,22.03
2018-09-09T08:25:32.331Z,22.00
2018-09-09T08:28:01.018Z,21.80
2018-09-09T08:30:29.692Z,21.72
2018-09-09T08:32:58.355Z,21.83
2018-09-09T08:35:27.042Z,21.92
2018-09-09T08:37:55.808Z,21.96
2018-09-09T08:40:24.447Z,22.05
2018-09-09T08:42:53.102Z,22.01
2018-09-09T08:45:21.799Z,21.99
2018-09-09T08:50:18.029Z,22.28
2018-09-09T08:52:46.746Z,22.26
2018-09-09T08:55:15.378Z,22.27
2018-09-09T08:57:44.098Z,22.39
2018-09-09T09:00:12.781Z,22.56
2018-09-09T09:02:41.457Z,22.75
2018-09-09T09:05:10.171Z,22.93
2018-09-09T09:07:38.884Z,23.24
2018-09-09T09:10:07.694Z,23.45
2018-09-09T09:12:36.344Z,23.72
2018-09-09T09:15:04.988Z,23.83
2018-09-09T09:17:33.615Z,23.94
2018-09-09T09:20:02.373Z,23.94
2018-09-09T09:22:31.055Z,23.87
2018-09-09T09:24:59.736Z,23.60
2018-09-09T09:27:28.392Z,23.40
2018-09-09T09:29:57.590Z,23.37
2018-09-09T09:32:26.663Z,23.60
2018-09-09T09:34:56.070Z,23.90
2018-09-09T09:37:26.419Z,24.08
2018-09-09T09:39:55.927Z,24.00
2018-09-09T09:42:25.219Z,23.81
2018-09-09T09:44:53.981Z,23.59
2018-09-09T09:47:22.639Z,23.29
2018-09-09T09:49:51.269Z,23.22
2018-09-09T09:52:19.914Z,23.34
2018-09-09T09:54:48.548Z,23.28
2018-09-09T09:57:17.170Z,23.53
2018-09-09T09:59:45.865Z,23.73
2018-09-09T10:02:14.538Z,23.94
2018-09-09T10:04:43.217Z,24.07
2018-09-09T10:07:11.891Z,23.98
2018-09-09T10:09:40.533Z,24.09
2018-09-09T10:12:09.255Z,24.07
2018-09-09T10:14:37.996Z,24.60
2018-09-09T10:17:06.691Z,25.22
2018-09-09T10:19:35.305Z,25.24
2018-09-09T10:22:03.981Z,25.07
2018-09-09T10:24:32.646Z,24.79
2018-09-09T10:27:01.363Z,25.12
2018-09-09T10:29:30.003Z,25.03
2018-09-09T10:31:58.642Z,24.79
2018-09-09T10:34:27.316Z,24.60
2018-09-09T10:36:56.107Z,24.25
2018-09-09T10:39:24.760Z,24.77
2018-09-09T10:41:53.384Z,25.26
2018-09-09T10:44:22.081Z,25.82
2018-09-09T10:46:50.875Z,25.55
2018-09-09T10:49:19.467Z,25.26
2018-09-09T10:51:48.157Z,25.57
2018-09-09T10:54:16.844Z,25.74
2018-09-09T10:56:45.471Z,25.85
2018-09-09T10:59:14.113Z,25.59
2018-09-09T11:01:42.766Z,26.16
2018-09-09T11:04:11.403Z,26.41
2018-09-09T11:06:40.181Z,26.85
2018-09-09T11:09:09.933Z,26.60
2018-09-09T11:11:38.748Z,25.56
2018-09-09T11:14:07.427Z,25.32
2018-09-09T11:16:36.085Z,25.26
2018-09-09T11:19:04.826Z,25.21
2018-09-09T11:21:33.483Z,24.60
2018-09-09T11:24:02.179Z,24.16
2018-09-09T11:26:30.888Z,23.41
2018-09-09T11:28:59.554Z,22.15
2018-09-09T11:31:28.229Z,21.42
2018-09-09T11:33:56.905Z,20.85
2018-09-09T11:36:25.597Z,19.83
2018-09-09T11:38:54.296Z,19.19
2018-09-09T11:41:23.020Z,18.99
2018-09-09T11:43:51.703Z,19.06
2018-09-09T11:46:20.650Z,19.09
2018-09-09T11:48:49.356Z,19.33
2018-09-09T11:51:18.028Z,19.56
2018-09-09T11:53:46.719Z,19.73
2018-09-09T11:56:15.460Z,19.97
2018-09-09T11:58:44.208Z,19.68
2018-09-09T12:01:12.921Z,19.19
2018-09-09T12:03:41.589Z,18.97
2018-09-09T12:06:10.246Z,18.48
2018-09-09T12:08:38.878Z,18.10
2018-09-09T12:11:07.577Z,18.10
2018-09-09T12:13:36.281Z,18.24
2018-09-09T12:16:05.123Z,18.29
2018-09-09T12:18:33.789Z,18.39
2018-09-09T12:21:02.551Z,18.58
2018-09-09T12:23:31.356Z,18.26
2018-09-09T12:26:00.029Z,18.28
2018-09-09T12:28:28.713Z,18.70
2018-09-09T12:30:57.366Z,19.46
2018-09-09T12:33:25.989Z,20.22
2018-09-09T12:35:54.669Z,21.04
2018-09-09T12:38:23.327Z,21.74
2018-09-09T12:40:51.960Z,21.53
2018-09-09T12:43:25.775Z,21.27
2018-09-09T12:45:59.594Z,20.89
2018-09-09T12:48:33.502Z,20.79
2018-09-09T12:51:02.164Z,20.83
2018-09-09T12:53:30.798Z,20.59
2018-09-09T12:55:59.463Z,20.41
2018-09-09T12:58:28.143Z,20.14
2018-09-09T13:00:56.802Z,19.92
2018-09-09T13:03:25.460Z,19.85
2018-09-09T13:05:54.096Z,19.85
2018-09-09T13:08:22.733Z,19.89
2018-09-09T13:10:51.436Z,20.01
2018-09-09T13:13:20.818Z,20.18
2018-09-09T13:15:50.025Z,20.61
2018-09-09T13:18:18.736Z,21.05
2018-09-09T13:20:47.384Z,21.55
2018-09-09T13:23:16.021Z,21.75
2018-09-09T13:25:44.679Z,21.96
2018-09-09T13:28:13.394Z,22.01
2018-09-09T13:30:42.069Z,21.88
2018-09-09T13:33:10.735Z,21.48
2018-09-09T13:35:39.369Z,21.42
2018-09-09T13:38:08.078Z,21.22
2018-09-09T13:40:36.795Z,21.03
2018-09-09T13:43:05.615Z,20.87
2018-09-09T13:45:34.286Z,20.80
2018-09-09T13:48:03.144Z,20.85
2018-09-09T13:50:31.810Z,20.77
2018-09-09T13:53:00.464Z,20.81
2018-09-09T13:55:29.154Z,20.87
2018-09-09T13:57:57.795Z,20.97
2018-09-09T14:00:26.470Z,21.00
2018-09-09T14:02:55.149Z,21.13
2018-09-09T14:05:23.859Z,21.30
2018-09-09T14:07:52.538Z,21.45
2018-09-09T14:10:21.222Z,21.64
2018-09-09T14:12:49.887Z,22.47
2018-09-09T14:15:18.625Z,23.48
2018-09-09T14:17:47.290Z,24.03
2018-09-09T14:20:16.000Z,24.68
2018-09-09T14:22:44.709Z,25.04
2018-09-09T14:25:13.302Z,25.22
2018-09-09T14:27:42.042Z,25.68
2018-09-09T14:31:40.087Z,26.32
2018-09-09T14:34:08.906Z,26.71
2018-09-09T14:36:37.564Z,26.74
2018-09-09T14:39:08.327Z,26.14
2018-09-09T14:41:37.047Z,26.31
2018-09-09T14:44:06.044Z,26.40
2018-09-09T14:46:34.822Z,26.27
2018-09-09T14:49:03.514Z,26.44
2018-09-09T14:51:32.241Z,25.70
2018-09-09T14:54:01.001Z,25.50
2018-09-09T14:56:29.760Z,24.59
2018-09-09T14:58:58.925Z,23.92
2018-09-09T15:01:27.692Z,23.56
2018-09-09T15:03:56.402Z,23.38
2018-09-09T15:06:25.186Z,23.15
2018-09-09T15:08:54.080Z,22.94
2018-09-09T15:11:22.814Z,22.85
2018-09-09T15:13:51.583Z,22.80
2018-09-09T15:16:20.234Z,22.74
2018-09-09T15:18:48.946Z,22.73
2018-09-09T15:21:17.702Z,22.76
2018-09-09T15:23:46.376Z,22.78
2018-09-09T15:26:15.130Z,23.25
2018-09-09T15:28:43.858Z,23.40
2018-09-09T15:31:12.535Z,23.25
2018-09-09T15:33:41.258Z,23.03
2018-09-09T15:36:10.550Z,22.90
2018-09-09T15:38:39.443Z,23.02
2018-09-09T15:41:08.213Z,23.43
2018-09-09T15:43:37.072Z,23.74
2018-09-09T15:46:06.431Z,23.89
2018-09-09T15:48:35.184Z,24.08
2018-09-09T15:51:04.118Z,23.95
2018-09-09T15:53:32.849Z,23.99
2018-09-09T15:56:01.589Z,23.96
2018-09-09T15:58:30.302Z,23.85
2018-09-09T16:00:59.088Z,23.77
2018-09-09T16:03:27.941Z,23.72
2018-09-09T16:05:57.300Z,23.54
2018-09-09T16:08:26.086Z,23.66
2018-09-09T16:10:54.855Z,23.66
2018-09-09T16:13:23.667Z,23.24
2018-09-09T16:15:52.397Z,22.83
2018-09-09T16:18:21.157Z,22.62
2018-09-09T16:20:49.888Z,22.40
2018-09-09T16:23:18.753Z,22.24
2018-09-09T16:25:47.617Z,22.11
2018-09-09T16:28:16.341Z,22.03
2018-09-09T16:30:45.725Z,21.95
2018-09-09T16:33:14.398Z,21.86
2018-09-09T16:35:43.187Z,21.83
2018-09-09T16:38:11.898Z,21.73
2018-09-09T16:40:40.721Z,21.65
2018-09-09T16:43:11.064Z,21.58
2018-09-09T16:45:40.548Z,21.47
2018-09-09T16:48:09.288Z,21.39
2018-09-09T16:50:38.099Z,21.32
2018-09-09T16:53:07.022Z,21.28
2018-09-09T16:57:23.623Z,21.15
2018-09-09T16:59:52.320Z,21.08
2018-09-09T17:02:21.098Z,21.08
2018-09-09T17:04:49.851Z,21.04
2018-09-09T17:07:18.572Z,20.96
2018-09-09T17:09:47.754Z,20.94
2018-09-09T17:12:16.772Z,20.85
2018-09-09T17:14:45.570Z,20.84
2018-09-09T17:17:14.314Z,20.79
2018-09-09T17:19:42.993Z,20.77
2018-09-09T17:22:11.715Z,20.74
2018-09-09T17:24:40.489Z,20.74
2018-09-09T17:27:09.300Z,20.68
2018-09-09T17:29:38.056Z,20.66
2018-09-09T17:32:06.771Z,20.61
2018-09-09T17:34:35.475Z,20.56
2018-09-09T17:37:04.546Z,20.52
2018-09-09T17:39:33.262Z,20.48
2018-09-09T17:42:01.916Z,20.47
2018-09-09T17:44:30.788Z,20.40
2018-09-09T17:46:59.631Z,20.37
2018-09-09T17:49:28.334Z,20.36
2018-09-09T17:51:57.132Z,20.33
2018-09-09T17:54:25.809Z,20.30
2018-09-09T17:56:54.607Z,20.20
2018-09-09T17:59:23.445Z,20.15
2018-09-09T18:01:52.239Z,20.12
2018-09-09T18:04:21.074Z,20.13
2018-09-09T18:06:49.782Z,20.08
2018-09-09T18:09:18.552Z,20.07
2018-09-09T18:11:47.387Z,20.08
2018-09-09T18:14:16.000Z,20.12
2018-09-09T18:16:44.702Z,20.14
2018-09-09T18:19:13.581Z,20.09
2018-09-09T18:21:42.305Z,20.09
2018-09-09T18:24:11.122Z,20.10
2018-09-09T18:26:39.824Z,20.06
2018-09-09T18:29:08.525Z,19.93
2018-09-09T18:31:37.231Z,20.00
2018-09-09T18:34:05.912Z,19.97
2018-09-09T18:36:34.640Z,19.91
2018-09-09T18:39:03.628Z,19.80
2018-09-09T18:41:32.311Z,19.81
2018-09-09T18:44:01.255Z,19.80
2018-09-09T18:46:30.097Z,19.77
2018-09-09T18:48:58.961Z,19.75
2018-09-09T18:51:27.775Z,19.70
2018-09-09T18:53:56.600Z,19.63
2018-09-09T18:56:25.357Z,19.61
2018-09-09T18:58:54.260Z,19.47
2018-09-09T19:01:23.016Z,19.43
2018-09-09T19:03:51.770Z,19.41
2018-09-09T19:06:20.642Z,19.35
2018-09-09T19:08:49.267Z,19.28
2018-09-09T19:11:17.946Z,19.21
2018-09-09T19:13:46.678Z,19.15
2018-09-09T19:16:15.417Z,19.09
2018-09-09T19:18:44.159Z,19.05
2018-09-09T19:21:12.934Z,19.05
2018-09-09T19:23:41.683Z,19.08
2018-09-09T19:26:10.369Z,19.11
2018-09-09T19:28:40.570Z,19.09
2018-09-09T19:31:09.294Z,19.14
2018-09-09T19:33:38.049Z,19.06
2018-09-09T19:36:06.872Z,19.03
2018-09-09T19:38:35.660Z,19.03
2018-09-09T19:41:04.351Z,18.90
2018-09-09T19:43:33.345Z,18.95
2018-09-09T19:46:02.066Z,18.93
2018-09-09T19:48:30.727Z,18.96
2018-09-09T19:50:59.445Z,18.75
2018-09-09T19:53:28.140Z,18.82
2018-09-09T19:55:56.853Z,18.79
2018-09-09T19:58:25.807Z,18.72
2018-09-09T20:00:54.492Z,18.63
2018-09-09T20:03:23.276Z,18.68
2018-09-09T20:05:51.981Z,18.55
2018-09-09T20:08:20.630Z,18.45
2018-09-09T20:10:49.371Z,18.56
2018-09-09T20:13:18.071Z,18.56
2018-09-09T20:15:46.926Z,18.51
2018-09-09T20:18:15.535Z,18.59
2018-09-09T20:20:44.243Z,18.56
2018-09-09T20:23:13.291Z,18.45
2018-09-09T20:25:41.943Z,18.50
2018-09-09T20:28:10.615Z,18.45
2018-09-09T20:30:39.379Z,18.43
2018-09-09T20:33:08.049Z,18.46
2018-09-09T20:35:36.717Z,18.46
2018-09-09T20:38:05.507Z,18.45
2018-09-09T20:40:34.173Z,18.42
2018-09-09T20:43:02.858Z,18.30
2018-09-09T20:45:31.627Z,18.28
2018-09-09T20:48:00.563Z,18.32
2018-09-09T20:50:29.326Z,18.33
2018-09-09T20:52:58.173Z,18.38
2018-09-09T20:55:26.810Z,18.35
2018-09-09T20:57:55.500Z,18.35
2018-09-09T21:00:24.303Z,18.40
2018-09-09T21:02:53.660Z,18.29
2018-09-09T21:05:22.518Z,18.40
2018-09-09T21:07:51.318Z,18.33
2018-09-09T21:10:19.997Z,18.34
2018-09-09T21:12:48.671Z,18.30
2018-09-09T21:15:17.519Z,18.32
2018-09-09T21:17:46.334Z,18.20
2018-09-09T21:20:15.139Z,18.30
2018-09-09T21:22:43.976Z,18.24
2018-09-09T21:25:12.783Z,18.23
2018-09-09T21:27:41.667Z,18.17
2018-09-09T21:30:10.499Z,18.25
2018-09-09T21:32:39.235Z,18.25
2018-09-09T21:35:08.018Z,18.28
2018-09-09T21:37:36.709Z,18.28
2018-09-09T21:40:05.455Z,18.28
2018-09-09T21:42:34.214Z,18.24
2018-09-09T21:45:02.882Z,18.15
2018-09-09T21:47:31.681Z,18.22
2018-09-09T21:50:00.467Z,18.19
2018-09-09T21:52:29.184Z,18.14
2018-09-09T21:54:57.947Z,18.18
2018-09-09T21:57:26.724Z,18.18
2018-09-09T21:59:55.441Z,18.19
2018-09-09T22:02:24.114Z,18.17
2018-09-09T22:04:52.942Z,18.17
2018-09-09T22:07:21.771Z,18.12
2018-09-09T22:09:50.575Z,18.12
2018-09-09T22:12:19.448Z,18.12
2018-09-09T22:14:48.202Z,18.03
2018-09-09T22:17:16.875Z,18.10
2018-09-09T22:19:45.659Z,18.09
2018-09-09T22:22:14.351Z,18.04
2018-09-09T22:24:43.081Z,18.03
2018-09-09T22:27:12.442Z,18.00
2018-09-09T22:29:41.130Z,18.01
2018-09-09T22:32:09.816Z,17.80
2018-09-09T22:34:38.493Z,17.78
2018-09-09T22:37:07.138Z,17.77
2018-09-09T22:39:35.794Z,17.74
2018-09-09T22:42:04.508Z,17.74
2018-09-09T22:44:33.263Z,17.75
2018-09-09T22:47:01.911Z,17.68
2018-09-09T22:49:30.587Z,17.69
2018-09-09T22:51:59.292Z,17.66
2018-09-09T22:54:28.015Z,17.64
2018-09-09T22:56:56.656Z,17.62
2018-09-09T22:59:25.375Z,17.64
2018-09-09T23:01:54.148Z,17.68
2018-09-09T23:04:22.778Z,17.67
2018-09-09T23:06:51.820Z,17.62
2018-09-09T23:09:20.502Z,17.66
2018-09-09T23:11:49.807Z,17.69
2018-09-09T23:14:18.521Z,17.68
2018-09-09T23:16:47.255Z,17.62
2018-09-09T23:19:15.904Z,17.53
2018-09-09T23:21:44.557Z,17.54
2018-09-09T23:24:13.182Z,17.56
2018-09-09T23:26:41.855Z,17.58
2018-09-09T23:29:10.510Z,17.54
2018-09-09T23:34:38.438Z,17.53
2018-09-09T23:37:07.159Z,17.47
2018-09-09T23:39:35.810Z,17.46
2018-09-09T23:42:04.562Z,17.47
2018-09-09T23:44:33.229Z,17.46
2018-09-09T23:47:01.907Z,17.49
2018-09-09T23:49:30.590Z,17.49
2018-09-09T23:51:59.255Z,17.52
2018-09-09T23:54:27.968Z,17.43
2018-09-09T23:56:56.740Z,17.41
2018-09-09T23:59:25.415Z,17.43
